ARG4373 SAVC-SABE
Flight info
| Callsign | ARG4373 |
|---|---|
| Flight time | 2h 8m |
| Altitude | 35000 |
| Route | GATUD1G GATUD UP664 TRE UT693 BCA UW22 VALOS VALOS9Q |
| Aircraft | B738/M-SDE2E3FGHIRWXY/LB1 |
Departure
| Time | 2026-04-14 15:06 |
|---|---|
| Airport | General Enrique Mosconi International Airport (SAVC) |
Arrival
| Time | 2026-04-14 17:15 |
|---|---|
| Airport | Aeroparque Jorge Newbery (SABE) |
| Time | Latitude | Longitude | Altitude | Speed | Heading |
|---|---|---|---|---|---|
| 2026-04-14 14:49 | -45.78946 | -67.46818 | 195 ft | 0 kts | 221° |
| 2026-04-14 14:58 | -45.78936 | -67.46805 | 214 ft | 2 kts | 221° |
| 2026-04-14 14:58 | -45.78924 | -67.46793 | 210 ft | 2 kts | 162° |
| 2026-04-14 14:59 | -45.78911 | -67.46797 | 204 ft | 2 kts | 162° |
| 2026-04-14 14:59 | -45.78908 | -67.46813 | 211 ft | 2 kts | 86° |
| 2026-04-14 14:59 | -45.78910 | -67.46832 | 207 ft | 2 kts | 85° |
| 2026-04-14 14:59 | -45.78911 | -67.46849 | 207 ft | 1 kts | 88° |
| 2026-04-14 15:00 | -45.78911 | -67.46851 | 207 ft | 0 kts | 88° |
| 2026-04-14 15:00 | -45.78911 | -67.46850 | 205 ft | 0 kts | 88° |
| 2026-04-14 15:01 | -45.78911 | -67.46846 | 195 ft | 2 kts | 88° |
| 2026-04-14 15:01 | -45.78900 | -67.46806 | 206 ft | 6 kts | 37° |
| 2026-04-14 15:02 | -45.78843 | -67.46799 | 203 ft | 12 kts | 359° |
| 2026-04-14 15:02 | -45.78758 | -67.46782 | 202 ft | 12 kts | 44° |
| 2026-04-14 15:02 | -45.78739 | -67.46647 | 195 ft | 17 kts | 82° |
| 2026-04-14 15:02 | -45.78712 | -67.46457 | 195 ft | 22 kts | 83° |
| 2026-04-14 15:03 | -45.78678 | -67.46205 | 208 ft | 29 kts | 79° |
| 2026-04-14 15:03 | -45.78636 | -67.45881 | 208 ft | 37 kts | 79° |
| 2026-04-14 15:03 | -45.78584 | -67.45485 | 198 ft | 44 kts | 79° |
| 2026-04-14 15:03 | -45.78532 | -67.45096 | 204 ft | 13 kts | 79° |
| 2026-04-14 15:04 | -45.78513 | -67.44956 | 197 ft | 17 kts | 79° |
| 2026-04-14 15:04 | -45.78445 | -67.44855 | 208 ft | 16 kts | 19° |
| 2026-04-14 15:04 | -45.78342 | -67.44841 | 201 ft | 12 kts | 344° |
| 2026-04-14 15:04 | -45.78304 | -67.44867 | 202 ft | 3 kts | 306° |
| 2026-04-14 15:05 | -45.78299 | -67.44904 | 195 ft | 4 kts | 261° |
| 2026-04-14 15:05 | -45.78313 | -67.44958 | 197 ft | 7 kts | 258° |
| 2026-04-14 15:05 | -45.78314 | -67.44965 | 200 ft | 0 kts | 259° |
| 2026-04-14 15:06 | -45.78317 | -67.44985 | 197 ft | 18 kts | 259° |
| 2026-04-14 15:06 | -45.78399 | -67.45604 | 195 ft | 106 kts | 259° |
| 2026-04-14 15:06 | -45.78579 | -67.46946 | 402 ft | 160 kts | 261° |
| 2026-04-14 15:06 | -45.78833 | -67.48584 | 1208 ft | 177 kts | 255° |
| 2026-04-14 15:07 | -45.79394 | -67.50236 | 2041 ft | 195 kts | 248° |
| 2026-04-14 15:07 | -45.80077 | -67.52011 | 2848 ft | 209 kts | 244° |
| 2026-04-14 15:07 | -45.80795 | -67.53930 | 3587 ft | 232 kts | 247° |
| 2026-04-14 15:07 | -45.81577 | -67.56137 | 4170 ft | 262 kts | 246° |
| 2026-04-14 15:08 | -45.82396 | -67.58496 | 5174 ft | 261 kts | 248° |
| 2026-04-14 15:08 | -45.82891 | -67.60905 | 5973 ft | 250 kts | 274° |
| 2026-04-14 15:08 | -45.82193 | -67.63140 | 6887 ft | 250 kts | 301° |
| 2026-04-14 15:08 | -45.81145 | -67.65116 | 7761 ft | 247 kts | 301° |
| 2026-04-14 15:09 | -45.80197 | -67.67137 | 8648 ft | 241 kts | 298° |
| 2026-04-14 15:09 | -45.79333 | -67.69166 | 9573 ft | 237 kts | 298° |
| 2026-04-14 15:09 | -45.78442 | -67.71119 | 10395 ft | 232 kts | 306° |
| 2026-04-14 15:09 | -45.77098 | -67.72424 | 11246 ft | 244 kts | 336° |
| 2026-04-14 15:10 | -45.75388 | -67.72824 | 12185 ft | 254 kts | 342° |
| 2026-04-14 15:10 | -45.73619 | -67.73185 | 13117 ft | 260 kts | 341° |
| 2026-04-14 15:10 | -45.71751 | -67.73280 | 13963 ft | 283 kts | 359° |
| 2026-04-14 15:10 | -45.69863 | -67.72111 | 14847 ft | 310 kts | 24° |
| 2026-04-14 15:11 | -45.68097 | -67.70269 | 15718 ft | 317 kts | 26° |
| 2026-04-14 15:11 | -45.66322 | -67.68351 | 16505 ft | 325 kts | 25° |
| 2026-04-14 15:11 | -45.64464 | -67.66461 | 17215 ft | 331 kts | 24° |
| 2026-04-14 15:11 | -45.62538 | -67.64597 | 17943 ft | 337 kts | 23° |
| 2026-04-14 15:12 | -45.60593 | -67.62743 | 18581 ft | 344 kts | 22° |
| 2026-04-14 15:12 | -45.58587 | -67.60830 | 19247 ft | 350 kts | 22° |
| 2026-04-14 15:12 | -45.56551 | -67.58879 | 19919 ft | 355 kts | 22° |
| 2026-04-14 15:12 | -45.54486 | -67.56893 | 20585 ft | 360 kts | 22° |
| 2026-04-14 15:13 | -45.52400 | -67.54886 | 21288 ft | 363 kts | 22° |
| 2026-04-14 15:13 | -45.50298 | -67.52866 | 21991 ft | 366 kts | 21° |
| 2026-04-14 15:13 | -45.48180 | -67.50833 | 22718 ft | 367 kts | 21° |
| 2026-04-14 15:13 | -45.46057 | -67.48799 | 23407 ft | 368 kts | 21° |
| 2026-04-14 15:14 | -45.43935 | -67.46767 | 24033 ft | 367 kts | 21° |
| 2026-04-14 15:14 | -45.41820 | -67.44742 | 24661 ft | 366 kts | 21° |
| 2026-04-14 15:14 | -45.39712 | -67.42726 | 25314 ft | 364 kts | 21° |
| 2026-04-14 15:14 | -45.37613 | -67.40720 | 25988 ft | 362 kts | 20° |
| 2026-04-14 15:15 | -45.35533 | -67.38734 | 26655 ft | 359 kts | 20° |
| 2026-04-14 15:15 | -45.33468 | -67.36764 | 27340 ft | 356 kts | 20° |
| 2026-04-14 15:15 | -45.31429 | -67.34819 | 28043 ft | 351 kts | 20° |
| 2026-04-14 15:15 | -45.29410 | -67.32897 | 28700 ft | 347 kts | 19° |
| 2026-04-14 15:16 | -45.27430 | -67.31009 | 29363 ft | 335 kts | 19° |
| 2026-04-14 15:16 | -45.25545 | -67.29206 | 29989 ft | 321 kts | 18° |
| 2026-04-14 15:16 | -45.23709 | -67.27467 | 30585 ft | 314 kts | 17° |
| 2026-04-14 15:16 | -45.21907 | -67.25763 | 31110 ft | 310 kts | 17° |
| 2026-04-14 15:17 | -45.20128 | -67.24082 | 31597 ft | 306 kts | 17° |
| 2026-04-14 15:17 | -45.18369 | -67.22419 | 32099 ft | 301 kts | 17° |
| 2026-04-14 15:17 | -45.16645 | -67.20786 | 32599 ft | 296 kts | 16° |
| 2026-04-14 15:17 | -45.14950 | -67.19178 | 33112 ft | 290 kts | 15° |
| 2026-04-14 15:18 | -45.13295 | -67.17610 | 33628 ft | 283 kts | 15° |
| 2026-04-14 15:18 | -45.11674 | -67.16077 | 33988 ft | 280 kts | 15° |
| 2026-04-14 15:18 | -45.10016 | -67.14543 | 33716 ft | 298 kts | 15° |
| 2026-04-14 15:18 | -45.08202 | -67.12875 | 33443 ft | 316 kts | 17° |
| 2026-04-14 15:19 | -45.06336 | -67.11145 | 33148 ft | 334 kts | 18° |
| 2026-04-14 15:19 | -45.04381 | -67.09304 | 33228 ft | 341 kts | 18° |
| 2026-04-14 15:19 | -45.00342 | -67.05479 | 33304 ft | 356 kts | 18° |
| 2026-04-14 15:20 | -44.96135 | -67.01509 | 33374 ft | 371 kts | 19° |
| 2026-04-14 15:20 | -44.91769 | -66.97413 | 33441 ft | 383 kts | 19° |
| 2026-04-14 15:21 | -44.89544 | -66.95329 | 33676 ft | 384 kts | 19° |
| 2026-04-14 15:21 | -44.87318 | -66.93243 | 33899 ft | 385 kts | 19° |
| 2026-04-14 15:21 | -44.85085 | -66.91158 | 34120 ft | 385 kts | 19° |
| 2026-04-14 15:21 | -44.82849 | -66.89073 | 34341 ft | 386 kts | 19° |
| 2026-04-14 15:22 | -44.80611 | -66.86989 | 34573 ft | 386 kts | 19° |
| 2026-04-14 15:22 | -44.78368 | -66.84902 | 34804 ft | 386 kts | 19° |
| 2026-04-14 15:22 | -44.76140 | -66.82827 | 35123 ft | 384 kts | 19° |
| 2026-04-14 15:22 | -44.73891 | -66.80741 | 35103 ft | 390 kts | 20° |
| 2026-04-14 15:23 | -44.69312 | -66.76508 | 35135 ft | 398 kts | 20° |
| 2026-04-14 15:23 | -44.64630 | -66.72179 | 35141 ft | 407 kts | 20° |
| 2026-04-14 15:24 | -44.59855 | -66.67764 | 35140 ft | 415 kts | 20° |
| 2026-04-14 15:24 | -44.55051 | -66.63323 | 35131 ft | 417 kts | 20° |
| 2026-04-14 15:25 | -44.50167 | -66.58817 | 35128 ft | 418 kts | 20° |
| 2026-04-14 15:25 | -44.45341 | -66.54380 | 35135 ft | 418 kts | 20° |
| 2026-04-14 15:26 | -44.40471 | -66.49914 | 35135 ft | 418 kts | 20° |
| 2026-04-14 15:26 | -44.35608 | -66.45464 | 35138 ft | 418 kts | 20° |
| 2026-04-14 15:27 | -44.30746 | -66.41024 | 35135 ft | 417 kts | 20° |
| 2026-04-14 15:27 | -44.25882 | -66.36590 | 35151 ft | 417 kts | 20° |
| 2026-04-14 15:28 | -44.21020 | -66.32166 | 35137 ft | 417 kts | 20° |
| 2026-04-14 15:28 | -44.16181 | -66.27643 | 35136 ft | 424 kts | 25° |
| 2026-04-14 15:29 | -44.13907 | -66.24950 | 35134 ft | 439 kts | 33° |
| 2026-04-14 15:29 | -44.12195 | -66.21222 | 35171 ft | 478 kts | 56° |
| 2026-04-14 15:29 | -44.09951 | -66.12461 | 35142 ft | 478 kts | 53° |
| 2026-04-14 15:30 | -44.08328 | -66.08585 | 35161 ft | 452 kts | 40° |
| 2026-04-14 15:30 | -44.06396 | -66.05168 | 35145 ft | 449 kts | 38° |
| 2026-04-14 15:30 | -44.04524 | -66.01646 | 35126 ft | 466 kts | 50° |
| 2026-04-14 15:30 | -44.03452 | -65.97217 | 35202 ft | 497 kts | 68° |
| 2026-04-14 15:31 | -44.02146 | -65.87728 | 35122 ft | 488 kts | 58° |
| 2026-04-14 15:31 | -44.00441 | -65.84017 | 35161 ft | 433 kts | 28° |
| 2026-04-14 15:31 | -43.97976 | -65.82045 | 35137 ft | 394 kts | 4° |
| 2026-04-14 15:32 | -43.95334 | -65.81481 | 35152 ft | 382 kts | 356° |
| 2026-04-14 15:32 | -43.92678 | -65.81022 | 35159 ft | 389 kts | 1° |
| 2026-04-14 15:32 | -43.90055 | -65.79766 | 35163 ft | 411 kts | 16° |
| 2026-04-14 15:32 | -43.87556 | -65.77755 | 35146 ft | 420 kts | 20° |
| 2026-04-14 15:33 | -43.82592 | -65.73416 | 35144 ft | 420 kts | 19° |
| 2026-04-14 15:33 | -43.77498 | -65.69674 | 35146 ft | 416 kts | 16° |
| 2026-04-14 15:34 | -43.72349 | -65.65934 | 35156 ft | 420 kts | 18° |
| 2026-04-14 15:34 | -43.67235 | -65.61965 | 35154 ft | 422 kts | 19° |
| 2026-04-14 15:35 | -43.62141 | -65.57892 | 35151 ft | 423 kts | 19° |
| 2026-04-14 15:35 | -43.57047 | -65.53810 | 35152 ft | 424 kts | 19° |
| 2026-04-14 15:36 | -43.51947 | -65.49740 | 35159 ft | 424 kts | 19° |
| 2026-04-14 15:36 | -43.46840 | -65.45679 | 35160 ft | 424 kts | 19° |
| 2026-04-14 15:37 | -43.42586 | -65.42303 | 35163 ft | 425 kts | 19° |
| 2026-04-14 15:37 | -43.36597 | -65.37559 | 35161 ft | 425 kts | 19° |
| 2026-04-14 15:38 | -43.31470 | -65.33506 | 35160 ft | 425 kts | 20° |
| 2026-04-14 15:38 | -43.26370 | -65.29481 | 35156 ft | 425 kts | 20° |
| 2026-04-14 15:39 | -43.22073 | -65.26097 | 35157 ft | 425 kts | 20° |
| 2026-04-14 15:39 | -43.16081 | -65.21504 | 35156 ft | 423 kts | 18° |
| 2026-04-14 15:40 | -43.10888 | -65.17712 | 35160 ft | 423 kts | 18° |
| 2026-04-14 15:40 | -43.06529 | -65.14538 | 35162 ft | 423 kts | 18° |
| 2026-04-14 15:41 | -43.01364 | -65.10759 | 35173 ft | 424 kts | 18° |
| 2026-04-14 15:41 | -42.96159 | -65.06944 | 35180 ft | 425 kts | 19° |
| 2026-04-14 15:42 | -42.90936 | -65.03120 | 35182 ft | 426 kts | 19° |
| 2026-04-14 15:42 | -42.85703 | -64.99295 | 35184 ft | 427 kts | 19° |
| 2026-04-14 15:43 | -42.80460 | -64.95472 | 35188 ft | 428 kts | 19° |
| 2026-04-14 15:43 | -42.75205 | -64.91647 | 35194 ft | 429 kts | 19° |
| 2026-04-14 15:44 | -42.69933 | -64.87817 | 35193 ft | 430 kts | 19° |
| 2026-04-14 15:44 | -42.64653 | -64.83989 | 35195 ft | 430 kts | 19° |
| 2026-04-14 15:45 | -42.59365 | -64.80162 | 35193 ft | 431 kts | 19° |
| 2026-04-14 15:45 | -42.54070 | -64.76339 | 35200 ft | 431 kts | 19° |
| 2026-04-14 15:46 | -42.48767 | -64.72515 | 35205 ft | 432 kts | 19° |
| 2026-04-14 15:46 | -42.43456 | -64.68692 | 35211 ft | 433 kts | 19° |
| 2026-04-14 15:47 | -42.38170 | -64.64897 | 35206 ft | 433 kts | 19° |
| 2026-04-14 15:47 | -42.32791 | -64.61130 | 35216 ft | 432 kts | 18° |
| 2026-04-14 15:48 | -42.27457 | -64.57484 | 35221 ft | 433 kts | 18° |
| 2026-04-14 15:48 | -42.22080 | -64.53813 | 35228 ft | 433 kts | 19° |
| 2026-04-14 15:49 | -42.16702 | -64.50132 | 35228 ft | 434 kts | 19° |
| 2026-04-14 15:49 | -42.11315 | -64.46445 | 35229 ft | 434 kts | 19° |
| 2026-04-14 15:50 | -42.05925 | -64.42762 | 35230 ft | 435 kts | 19° |
| 2026-04-14 15:50 | -42.00521 | -64.39076 | 35237 ft | 436 kts | 19° |
| 2026-04-14 15:51 | -41.95112 | -64.35395 | 35244 ft | 436 kts | 19° |
| 2026-04-14 15:51 | -41.89688 | -64.31711 | 35248 ft | 437 kts | 19° |
| 2026-04-14 15:52 | -41.84242 | -64.28019 | 35246 ft | 438 kts | 19° |
| 2026-04-14 15:52 | -41.78788 | -64.24328 | 35248 ft | 439 kts | 19° |
| 2026-04-14 15:53 | -41.73355 | -64.20659 | 35253 ft | 440 kts | 19° |
| 2026-04-14 15:53 | -41.67870 | -64.16961 | 35259 ft | 442 kts | 19° |
| 2026-04-14 15:54 | -41.59737 | -64.11492 | 35264 ft | 443 kts | 19° |
| 2026-04-14 15:55 | -41.54219 | -64.07790 | 35267 ft | 444 kts | 19° |
| 2026-04-14 15:55 | -41.49116 | -64.04372 | 35266 ft | 445 kts | 19° |
| 2026-04-14 15:56 | -41.43622 | -64.00700 | 35269 ft | 446 kts | 19° |
| 2026-04-14 15:56 | -41.38077 | -63.97000 | 35271 ft | 446 kts | 19° |
| 2026-04-14 15:57 | -41.32523 | -63.93301 | 35274 ft | 447 kts | 19° |
| 2026-04-14 15:57 | -41.26962 | -63.89605 | 35272 ft | 447 kts | 19° |
| 2026-04-14 15:58 | -41.21400 | -63.85916 | 35273 ft | 447 kts | 19° |
| 2026-04-14 15:58 | -41.15832 | -63.82230 | 35275 ft | 447 kts | 19° |
| 2026-04-14 15:59 | -41.10266 | -63.78551 | 35274 ft | 448 kts | 19° |
| 2026-04-14 15:59 | -41.04684 | -63.74869 | 35278 ft | 448 kts | 19° |
| 2026-04-14 16:00 | -40.99104 | -63.71195 | 35278 ft | 448 kts | 20° |
| 2026-04-14 16:00 | -40.93510 | -63.67518 | 35275 ft | 448 kts | 20° |
| 2026-04-14 16:01 | -40.87979 | -63.63824 | 35287 ft | 449 kts | 21° |
| 2026-04-14 16:01 | -40.82487 | -63.59855 | 35285 ft | 450 kts | 22° |
| 2026-04-14 16:02 | -40.77016 | -63.55819 | 35282 ft | 451 kts | 22° |
| 2026-04-14 16:02 | -40.71518 | -63.51817 | 35290 ft | 451 kts | 22° |
| 2026-04-14 16:03 | -40.65998 | -63.47847 | 35290 ft | 452 kts | 22° |
| 2026-04-14 16:03 | -40.60465 | -63.43886 | 35293 ft | 453 kts | 22° |
| 2026-04-14 16:04 | -40.54916 | -63.39921 | 35295 ft | 455 kts | 22° |
| 2026-04-14 16:04 | -40.49343 | -63.35943 | 35297 ft | 456 kts | 23° |
| 2026-04-14 16:05 | -40.43760 | -63.31965 | 35297 ft | 458 kts | 23° |
| 2026-04-14 16:05 | -40.38177 | -63.27994 | 35300 ft | 460 kts | 23° |
| 2026-04-14 16:06 | -40.32538 | -63.23992 | 35305 ft | 462 kts | 23° |
| 2026-04-14 16:06 | -40.26877 | -63.19982 | 35307 ft | 464 kts | 23° |
| 2026-04-14 16:07 | -40.21189 | -63.15960 | 35307 ft | 465 kts | 24° |
| 2026-04-14 16:07 | -40.15485 | -63.11934 | 35310 ft | 466 kts | 24° |
| 2026-04-14 16:08 | -40.09768 | -63.07906 | 35312 ft | 467 kts | 24° |
| 2026-04-14 16:08 | -40.04041 | -63.03880 | 35314 ft | 468 kts | 24° |
| 2026-04-14 16:09 | -39.98302 | -62.99852 | 35313 ft | 468 kts | 24° |
| 2026-04-14 16:09 | -39.92566 | -62.95834 | 35316 ft | 468 kts | 24° |
| 2026-04-14 16:10 | -39.86915 | -62.91884 | 35317 ft | 468 kts | 24° |
| 2026-04-14 16:10 | -39.81174 | -62.87879 | 35315 ft | 468 kts | 25° |
| 2026-04-14 16:11 | -39.75429 | -62.83878 | 35321 ft | 468 kts | 25° |
| 2026-04-14 16:11 | -39.69679 | -62.79881 | 35324 ft | 468 kts | 25° |
| 2026-04-14 16:12 | -39.63930 | -62.75892 | 35325 ft | 469 kts | 25° |
| 2026-04-14 16:12 | -39.58173 | -62.71905 | 35329 ft | 469 kts | 25° |
| 2026-04-14 16:13 | -39.52412 | -62.67922 | 35331 ft | 470 kts | 25° |
| 2026-04-14 16:13 | -39.46619 | -62.63991 | 35331 ft | 470 kts | 24° |
| 2026-04-14 16:14 | -39.40773 | -62.60195 | 35334 ft | 470 kts | 24° |
| 2026-04-14 16:14 | -39.34911 | -62.56409 | 35331 ft | 471 kts | 24° |
| 2026-04-14 16:15 | -39.29087 | -62.52628 | 35336 ft | 472 kts | 24° |
| 2026-04-14 16:15 | -39.23218 | -62.48811 | 35334 ft | 473 kts | 24° |
| 2026-04-14 16:16 | -39.17335 | -62.44990 | 35343 ft | 474 kts | 24° |
| 2026-04-14 16:16 | -39.11444 | -62.41173 | 35341 ft | 474 kts | 24° |
| 2026-04-14 16:17 | -39.05541 | -62.37356 | 35343 ft | 475 kts | 24° |
| 2026-04-14 16:17 | -38.99632 | -62.33543 | 35346 ft | 476 kts | 24° |
| 2026-04-14 16:18 | -38.93709 | -62.29727 | 35349 ft | 476 kts | 24° |
| 2026-04-14 16:18 | -38.87777 | -62.25913 | 35352 ft | 477 kts | 24° |
| 2026-04-14 16:19 | -38.81844 | -62.22105 | 35357 ft | 477 kts | 24° |
| 2026-04-14 16:19 | -38.75906 | -62.18300 | 35359 ft | 477 kts | 24° |
| 2026-04-14 16:20 | -38.70048 | -62.14402 | 35351 ft | 479 kts | 28° |
| 2026-04-14 16:20 | -38.64507 | -62.09663 | 35360 ft | 480 kts | 35° |
| 2026-04-14 16:21 | -38.59208 | -62.04440 | 35358 ft | 480 kts | 36° |
| 2026-04-14 16:21 | -38.53854 | -61.99336 | 35372 ft | 480 kts | 34° |
| 2026-04-14 16:22 | -38.48421 | -61.94388 | 35371 ft | 479 kts | 33° |
| 2026-04-14 16:22 | -38.42968 | -61.89498 | 35386 ft | 479 kts | 33° |
| 2026-04-14 16:23 | -38.37524 | -61.84614 | 35392 ft | 479 kts | 33° |
| 2026-04-14 16:23 | -38.32115 | -61.79756 | 35396 ft | 478 kts | 33° |
| 2026-04-14 16:24 | -38.26674 | -61.74874 | 35406 ft | 478 kts | 33° |
| 2026-04-14 16:24 | -38.21242 | -61.70010 | 35413 ft | 478 kts | 33° |
| 2026-04-14 16:25 | -38.15807 | -61.65153 | 35418 ft | 477 kts | 33° |
| 2026-04-14 16:25 | -38.10370 | -61.60303 | 35417 ft | 477 kts | 33° |
| 2026-04-14 16:26 | -38.04942 | -61.55470 | 35425 ft | 476 kts | 32° |
| 2026-04-14 16:26 | -37.99521 | -61.50650 | 35426 ft | 476 kts | 32° |
| 2026-04-14 16:27 | -37.94099 | -61.45841 | 35432 ft | 475 kts | 32° |
| 2026-04-14 16:27 | -37.88680 | -61.41047 | 35431 ft | 475 kts | 32° |
| 2026-04-14 16:28 | -37.83256 | -61.36255 | 35437 ft | 475 kts | 32° |
| 2026-04-14 16:28 | -37.77848 | -61.31485 | 35433 ft | 474 kts | 32° |
| 2026-04-14 16:29 | -37.72434 | -61.26717 | 35429 ft | 474 kts | 31° |
| 2026-04-14 16:29 | -37.67044 | -61.21979 | 35435 ft | 474 kts | 31° |
| 2026-04-14 16:30 | -37.61629 | -61.17227 | 35430 ft | 474 kts | 31° |
| 2026-04-14 16:30 | -37.56217 | -61.12487 | 35437 ft | 474 kts | 30° |
| 2026-04-14 16:31 | -37.50804 | -61.07754 | 35439 ft | 473 kts | 30° |
| 2026-04-14 16:31 | -37.45391 | -61.03031 | 35437 ft | 473 kts | 30° |
| 2026-04-14 16:32 | -37.40891 | -60.99111 | 35443 ft | 473 kts | 29° |
| 2026-04-14 16:32 | -37.34598 | -60.93638 | 35442 ft | 473 kts | 29° |
| 2026-04-14 16:33 | -37.30064 | -60.89702 | 35443 ft | 473 kts | 28° |
| 2026-04-14 16:33 | -37.23792 | -60.84267 | 35445 ft | 473 kts | 28° |
| 2026-04-14 16:34 | -37.19252 | -60.80340 | 35443 ft | 473 kts | 28° |
| 2026-04-14 16:34 | -37.13836 | -60.75662 | 35441 ft | 473 kts | 27° |
| 2026-04-14 16:35 | -37.08449 | -60.71018 | 35445 ft | 473 kts | 27° |
| 2026-04-14 16:35 | -37.03023 | -60.66359 | 35445 ft | 474 kts | 28° |
| 2026-04-14 16:36 | -36.97552 | -60.61655 | 35444 ft | 474 kts | 28° |
| 2026-04-14 16:36 | -36.92147 | -60.57016 | 35448 ft | 475 kts | 27° |
| 2026-04-14 16:37 | -36.86689 | -60.52341 | 35449 ft | 475 kts | 27° |
| 2026-04-14 16:37 | -36.81313 | -60.47747 | 35445 ft | 476 kts | 27° |
| 2026-04-14 16:38 | -36.75765 | -60.43013 | 35449 ft | 476 kts | 26° |
| 2026-04-14 16:38 | -36.70289 | -60.38355 | 35445 ft | 476 kts | 26° |
| 2026-04-14 16:39 | -36.64795 | -60.33717 | 35447 ft | 477 kts | 26° |
| 2026-04-14 16:39 | -36.59315 | -60.29096 | 35434 ft | 470 kts | 26° |
| 2026-04-14 16:40 | -36.53964 | -60.24583 | 35318 ft | 463 kts | 25° |
| 2026-04-14 16:40 | -36.51298 | -60.22345 | 35050 ft | 461 kts | 25° |
| 2026-04-14 16:40 | -36.48651 | -60.20121 | 34808 ft | 458 kts | 25° |
| 2026-04-14 16:40 | -36.46015 | -60.17908 | 34520 ft | 457 kts | 25° |
| 2026-04-14 16:41 | -36.43419 | -60.15730 | 34247 ft | 455 kts | 24° |
| 2026-04-14 16:41 | -36.40799 | -60.13535 | 33914 ft | 455 kts | 24° |
| 2026-04-14 16:41 | -36.38168 | -60.11334 | 33538 ft | 455 kts | 24° |
| 2026-04-14 16:41 | -36.35546 | -60.09142 | 33167 ft | 454 kts | 25° |
| 2026-04-14 16:42 | -36.32928 | -60.06955 | 32784 ft | 453 kts | 25° |
| 2026-04-14 16:42 | -36.30324 | -60.04778 | 32385 ft | 448 kts | 25° |
| 2026-04-14 16:42 | -36.27759 | -60.02632 | 31999 ft | 441 kts | 25° |
| 2026-04-14 16:42 | -36.25232 | -60.00519 | 31646 ft | 435 kts | 25° |
| 2026-04-14 16:43 | -36.22731 | -59.98433 | 31300 ft | 432 kts | 25° |
| 2026-04-14 16:43 | -36.20246 | -59.96365 | 30953 ft | 429 kts | 26° |
| 2026-04-14 16:43 | -36.17773 | -59.94310 | 30615 ft | 426 kts | 26° |
| 2026-04-14 16:43 | -36.15323 | -59.92275 | 30285 ft | 424 kts | 26° |
| 2026-04-14 16:44 | -36.12872 | -59.90241 | 29936 ft | 422 kts | 26° |
| 2026-04-14 16:44 | -36.10470 | -59.88248 | 29548 ft | 420 kts | 26° |
| 2026-04-14 16:44 | -36.08042 | -59.86234 | 29163 ft | 419 kts | 26° |
| 2026-04-14 16:45 | -36.03222 | -59.82238 | 28411 ft | 416 kts | 27° |
| 2026-04-14 16:45 | -36.00820 | -59.80250 | 28036 ft | 415 kts | 27° |
| 2026-04-14 16:45 | -35.98428 | -59.78271 | 27687 ft | 413 kts | 27° |
| 2026-04-14 16:45 | -35.96054 | -59.76308 | 27352 ft | 411 kts | 27° |
| 2026-04-14 16:46 | -35.93685 | -59.74351 | 27020 ft | 409 kts | 27° |
| 2026-04-14 16:46 | -35.91322 | -59.72401 | 26691 ft | 407 kts | 27° |
| 2026-04-14 16:46 | -35.88979 | -59.70468 | 26385 ft | 403 kts | 27° |
| 2026-04-14 16:46 | -35.86666 | -59.68559 | 26082 ft | 398 kts | 27° |
| 2026-04-14 16:47 | -35.84379 | -59.66673 | 25779 ft | 392 kts | 27° |
| 2026-04-14 16:47 | -35.82125 | -59.64816 | 25490 ft | 387 kts | 27° |
| 2026-04-14 16:47 | -35.79900 | -59.62986 | 25225 ft | 382 kts | 27° |
| 2026-04-14 16:47 | -35.77704 | -59.61180 | 24982 ft | 376 kts | 27° |
| 2026-04-14 16:48 | -35.75567 | -59.59425 | 24749 ft | 373 kts | 27° |
| 2026-04-14 16:48 | -35.73393 | -59.57642 | 24509 ft | 369 kts | 27° |
| 2026-04-14 16:48 | -35.71249 | -59.55887 | 24292 ft | 371 kts | 27° |
| 2026-04-14 16:48 | -35.69094 | -59.54125 | 24060 ft | 372 kts | 27° |
| 2026-04-14 16:49 | -35.66952 | -59.52371 | 23823 ft | 368 kts | 27° |
| 2026-04-14 16:49 | -35.64859 | -59.50657 | 23598 ft | 365 kts | 27° |
| 2026-04-14 16:49 | -35.62753 | -59.48932 | 23336 ft | 362 kts | 27° |
| 2026-04-14 16:49 | -35.60666 | -59.47225 | 23059 ft | 359 kts | 27° |
| 2026-04-14 16:50 | -35.58594 | -59.45532 | 22798 ft | 357 kts | 27° |
| 2026-04-14 16:50 | -35.56526 | -59.43844 | 22512 ft | 355 kts | 28° |
| 2026-04-14 16:50 | -35.54467 | -59.42165 | 22176 ft | 356 kts | 28° |
| 2026-04-14 16:50 | -35.52407 | -59.40485 | 21874 ft | 354 kts | 28° |
| 2026-04-14 16:51 | -35.50369 | -59.38822 | 21558 ft | 350 kts | 28° |
| 2026-04-14 16:51 | -35.48354 | -59.37179 | 21287 ft | 343 kts | 28° |
| 2026-04-14 16:51 | -35.46396 | -59.35583 | 20999 ft | 335 kts | 28° |
| 2026-04-14 16:51 | -35.44456 | -59.34034 | 20683 ft | 330 kts | 27° |
| 2026-04-14 16:52 | -35.42497 | -59.32558 | 20409 ft | 332 kts | 26° |
| 2026-04-14 16:52 | -35.40504 | -59.31091 | 20141 ft | 334 kts | 26° |
| 2026-04-14 16:52 | -35.38530 | -59.29639 | 19857 ft | 327 kts | 26° |
| 2026-04-14 16:52 | -35.36629 | -59.28233 | 19584 ft | 320 kts | 26° |
| 2026-04-14 16:53 | -35.34742 | -59.26833 | 19323 ft | 315 kts | 27° |
| 2026-04-14 16:53 | -35.32871 | -59.25443 | 19070 ft | 315 kts | 27° |
| 2026-04-14 16:53 | -35.30995 | -59.24049 | 18816 ft | 315 kts | 27° |
| 2026-04-14 16:53 | -35.29126 | -59.22659 | 18563 ft | 314 kts | 27° |
| 2026-04-14 16:54 | -35.27247 | -59.21261 | 18263 ft | 319 kts | 27° |
| 2026-04-14 16:54 | -35.25341 | -59.19843 | 17986 ft | 320 kts | 27° |
| 2026-04-14 16:54 | -35.23447 | -59.18433 | 17704 ft | 318 kts | 27° |
| 2026-04-14 16:54 | -35.21562 | -59.17030 | 17424 ft | 315 kts | 27° |
| 2026-04-14 16:55 | -35.19691 | -59.15648 | 17145 ft | 313 kts | 27° |
| 2026-04-14 16:55 | -35.17804 | -59.14355 | 16869 ft | 309 kts | 24° |
| 2026-04-14 16:55 | -35.15892 | -59.13165 | 16594 ft | 307 kts | 22° |
| 2026-04-14 16:55 | -35.14051 | -59.12065 | 16325 ft | 303 kts | 22° |
| 2026-04-14 16:56 | -35.12171 | -59.10944 | 16047 ft | 298 kts | 22° |
| 2026-04-14 16:56 | -35.10321 | -59.09829 | 15778 ft | 294 kts | 23° |
| 2026-04-14 16:56 | -35.08508 | -59.08725 | 15534 ft | 290 kts | 23° |
| 2026-04-14 16:56 | -35.06712 | -59.07624 | 15292 ft | 287 kts | 23° |
| 2026-04-14 16:57 | -35.04933 | -59.06530 | 15052 ft | 285 kts | 23° |
| 2026-04-14 16:57 | -35.03171 | -59.05444 | 14815 ft | 283 kts | 24° |
| 2026-04-14 16:57 | -35.01449 | -59.04380 | 14584 ft | 281 kts | 24° |
| 2026-04-14 16:57 | -34.99708 | -59.03306 | 14350 ft | 279 kts | 24° |
| 2026-04-14 16:58 | -34.97989 | -59.02245 | 14118 ft | 277 kts | 24° |
| 2026-04-14 16:58 | -34.96294 | -59.01197 | 13941 ft | 269 kts | 24° |
| 2026-04-14 16:58 | -34.94641 | -59.00177 | 13708 ft | 265 kts | 24° |
| 2026-04-14 16:58 | -34.92986 | -58.99158 | 13451 ft | 270 kts | 24° |
| 2026-04-14 16:59 | -34.91289 | -58.98114 | 13199 ft | 274 kts | 24° |
| 2026-04-14 16:59 | -34.89595 | -58.97102 | 12931 ft | 268 kts | 22° |
| 2026-04-14 16:59 | -34.87920 | -58.96184 | 12676 ft | 261 kts | 21° |
| 2026-04-14 16:59 | -34.86265 | -58.95298 | 12445 ft | 260 kts | 21° |
| 2026-04-14 17:00 | -34.84608 | -58.94411 | 12217 ft | 260 kts | 21° |
| 2026-04-14 17:00 | -34.82960 | -58.93522 | 11975 ft | 257 kts | 22° |
| 2026-04-14 17:00 | -34.81346 | -58.92646 | 11729 ft | 251 kts | 22° |
| 2026-04-14 17:00 | -34.79765 | -58.91785 | 11517 ft | 247 kts | 22° |
| 2026-04-14 17:01 | -34.78191 | -58.90930 | 11291 ft | 248 kts | 22° |
| 2026-04-14 17:01 | -34.76649 | -58.90091 | 11069 ft | 249 kts | 22° |
| 2026-04-14 17:01 | -34.75066 | -58.89231 | 10862 ft | 248 kts | 22° |
| 2026-04-14 17:01 | -34.73486 | -58.88371 | 10643 ft | 249 kts | 22° |
| 2026-04-14 17:02 | -34.72977 | -58.88094 | 10572 ft | 247 kts | 22° |
| 2026-04-14 17:02 | -34.71358 | -58.87215 | 10300 ft | 236 kts | 22° |
| 2026-04-14 17:02 | -34.69896 | -58.86425 | 10087 ft | 225 kts | 22° |
| 2026-04-14 17:02 | -34.68495 | -58.85666 | 9889 ft | 218 kts | 23° |
| 2026-04-14 17:03 | -34.67097 | -58.84912 | 9684 ft | 221 kts | 23° |
| 2026-04-14 17:03 | -34.65682 | -58.84147 | 9493 ft | 224 kts | 24° |
| 2026-04-14 17:03 | -34.64243 | -58.83365 | 9212 ft | 228 kts | 23° |
| 2026-04-14 17:03 | -34.62802 | -58.82585 | 9016 ft | 225 kts | 23° |
| 2026-04-14 17:04 | -34.61376 | -58.81813 | 8775 ft | 223 kts | 22° |
| 2026-04-14 17:04 | -34.59968 | -58.81053 | 8533 ft | 219 kts | 23° |
| 2026-04-14 17:04 | -34.58592 | -58.80307 | 8317 ft | 216 kts | 23° |
| 2026-04-14 17:04 | -34.57213 | -58.79564 | 8055 ft | 215 kts | 24° |
| 2026-04-14 17:05 | -34.55834 | -58.78923 | 7819 ft | 211 kts | 11° |
| 2026-04-14 17:05 | -34.54385 | -58.78866 | 7619 ft | 207 kts | 360° |
| 2026-04-14 17:05 | -34.52906 | -58.78856 | 7446 ft | 218 kts | 5° |
| 2026-04-14 17:05 | -34.51395 | -58.78654 | 7214 ft | 218 kts | 8° |
| 2026-04-14 17:06 | -34.49898 | -58.78415 | 7017 ft | 217 kts | 8° |
| 2026-04-14 17:06 | -34.48408 | -58.78193 | 6759 ft | 214 kts | 7° |
| 2026-04-14 17:06 | -34.46940 | -58.77989 | 6583 ft | 212 kts | 7° |
| 2026-04-14 17:06 | -34.45483 | -58.77792 | 6411 ft | 210 kts | 7° |
| 2026-04-14 17:07 | -34.44048 | -58.77612 | 6176 ft | 202 kts | 7° |
| 2026-04-14 17:07 | -34.42681 | -58.77439 | 5988 ft | 193 kts | 7° |
| 2026-04-14 17:07 | -34.41345 | -58.77275 | 5761 ft | 192 kts | 7° |
| 2026-04-14 17:07 | -34.40021 | -58.77119 | 5578 ft | 190 kts | 7° |
| 2026-04-14 17:08 | -34.38789 | -58.76634 | 5450 ft | 187 kts | 42° |
| 2026-04-14 17:08 | -34.38291 | -58.75234 | 5474 ft | 192 kts | 89° |
| 2026-04-14 17:08 | -34.38715 | -58.73700 | 5472 ft | 196 kts | 112° |
| 2026-04-14 17:08 | -34.39286 | -58.72224 | 5436 ft | 190 kts | 106° |
| 2026-04-14 17:09 | -34.39494 | -58.70610 | 4860 ft | 207 kts | 101° |
| 2026-04-14 17:09 | -34.40119 | -58.69084 | 4711 ft | 201 kts | 121° |
| 2026-04-14 17:09 | -34.40952 | -58.67725 | 4309 ft | 201 kts | 125° |
| 2026-04-14 17:09 | -34.41786 | -58.66437 | 4176 ft | 186 kts | 120° |
| 2026-04-14 17:10 | -34.42452 | -58.65132 | 4036 ft | 178 kts | 118° |
| 2026-04-14 17:10 | -34.43148 | -58.63918 | 3874 ft | 173 kts | 122° |
| 2026-04-14 17:10 | -34.43900 | -58.62801 | 3697 ft | 171 kts | 127° |
| 2026-04-14 17:10 | -34.44676 | -58.61699 | 3570 ft | 175 kts | 125° |
| 2026-04-14 17:11 | -34.45419 | -58.60501 | 3367 ft | 179 kts | 121° |
| 2026-04-14 17:11 | -34.46126 | -58.59255 | 3104 ft | 176 kts | 120° |
| 2026-04-14 17:11 | -34.46782 | -58.58074 | 2926 ft | 161 kts | 119° |
| 2026-04-14 17:11 | -34.47409 | -58.56940 | 2669 ft | 159 kts | 120° |
| 2026-04-14 17:12 | -34.48016 | -58.55831 | 2472 ft | 160 kts | 119° |
| 2026-04-14 17:12 | -34.48649 | -58.54695 | 2252 ft | 163 kts | 121° |
| 2026-04-14 17:12 | -34.49277 | -58.53571 | 2064 ft | 161 kts | 120° |
| 2026-04-14 17:12 | -34.49907 | -58.52426 | 1825 ft | 163 kts | 120° |
| 2026-04-14 17:13 | -34.50526 | -58.51305 | 1606 ft | 157 kts | 121° |
| 2026-04-14 17:13 | -34.51130 | -58.50220 | 1411 ft | 154 kts | 121° |
| 2026-04-14 17:13 | -34.51733 | -58.49137 | 1249 ft | 157 kts | 121° |
| 2026-04-14 17:13 | -34.52342 | -58.48041 | 1018 ft | 156 kts | 119° |
| 2026-04-14 17:14 | -34.52926 | -58.46982 | 839 ft | 145 kts | 121° |
| 2026-04-14 17:14 | -34.53487 | -58.45982 | 714 ft | 146 kts | 121° |
| 2026-04-14 17:14 | -34.54059 | -58.44958 | 545 ft | 144 kts | 120° |
| 2026-04-14 17:14 | -34.54619 | -58.43912 | 333 ft | 152 kts | 122° |
| 2026-04-14 17:15 | -34.55203 | -58.42863 | 107 ft | 152 kts | 123° |
| 2026-04-14 17:15 | -34.55769 | -58.41856 | 26 ft | 121 kts | 124° |
| 2026-04-14 17:15 | -34.56102 | -58.41261 | 25 ft | 27 kts | 124° |
| 2026-04-14 17:15 | -34.56178 | -58.41123 | 28 ft | 17 kts | 124° |
| 2026-04-14 17:16 | -34.56178 | -58.41037 | 29 ft | 9 kts | 59° |
| 2026-04-14 17:16 | -34.56164 | -58.41007 | 27 ft | 0 kts | 60° |
| 2026-04-14 17:16 | -34.56163 | -58.41005 | 25 ft | 1 kts | 60° |
| 2026-04-14 17:17 | -34.56154 | -58.40986 | 25 ft | 4 kts | 54° |
| 2026-04-14 17:17 | -34.56123 | -58.40986 | 27 ft | 6 kts | 319° |
| 2026-04-14 17:17 | -34.56090 | -58.41036 | 26 ft | 10 kts | 307° |
| 2026-04-14 17:17 | -34.56042 | -58.41114 | 26 ft | 13 kts | 307° |
| 2026-04-14 17:18 | -34.55978 | -58.41214 | 27 ft | 17 kts | 307° |
| 2026-04-14 17:18 | -34.55933 | -58.41288 | 25 ft | 6 kts | 307° |
| 2026-04-14 17:18 | -34.55896 | -58.41311 | 25 ft | 2 kts | 8° |
| 2026-04-14 17:18 | -34.55885 | -58.41299 | 27 ft | 4 kts | 40° |
| 2026-04-14 17:19 | -34.55853 | -58.41282 | 26 ft | 6 kts | 2° |
| 2026-04-14 17:19 | -34.55825 | -58.41309 | 25 ft | 4 kts | 296° |
| 2026-04-14 17:19 | -34.55803 | -58.41310 | 25 ft | 3 kts | 27° |
| 2026-04-14 17:19 | -34.55791 | -58.41298 | 25 ft | 2 kts | 37° |
| 2026-04-14 17:20 | -34.55781 | -58.41290 | 25 ft | 2 kts | 36° |
| 2026-04-14 17:20 | -34.55780 | -58.41289 | 25 ft | 0 kts | 36° |